Time;durP1;ratioP1;P1;durP2;ratioP2;P2;SDS_P1;SDS_P2;PMS_P1;PMS_P2;Temp;Humidity;BMP_temperature;BMP_pressure;BME280_temperature;BME280_humidity;BME280_pressure;Samples;Min_cycle;Max_cycle;Signal;HPM_P1;HPM_P2
2024/01/13 00:00:31;;;;;;;14.03;10.60;;;3.60;92.30;;;;;;957344;147;28601;-82
2024/01/13 00:02:57;;;;;;;13.20;11.23;;;3.60;92.30;;;;;;957563;146;27387;-83
2024/01/13 00:05:24;;;;;;;15.47;11.33;;;3.70;92.30;;;;;;957594;148;27314;-81
2024/01/13 00:07:50;;;;;;;14.23;10.60;;;3.70;92.40;;;;;;957992;148;27333;-84
2024/01/13 00:10:17;;;;;;;14.43;11.33;;;3.60;92.40;;;;;;957950;146;27386;-82
2024/01/13 00:12:44;;;;;;;15.17;11.17;;;3.60;92.40;;;;;;957702;147;27625;-81
2024/01/13 00:15:10;;;;;;;14.30;10.33;;;3.70;92.50;;;;;;958065;146;27303;-83
2024/01/13 00:17:37;;;;;;;13.83;10.77;;;3.70;92.50;;;;;;957316;149;27290;-83
2024/01/13 00:20:04;;;;;;;12.20;9.77;;;3.70;92.50;;;;;;957665;148;27335;-81
2024/01/13 00:22:30;;;;;;;14.30;11.20;;;3.70;92.50;;;;;;957911;148;27318;-82
2024/01/13 00:24:56;;;;;;;15.37;11.37;;;3.70;92.50;;;;;;957776;148;27435;-83
2024/01/13 00:27:23;;;;;;;15.87;11.40;;;3.70;92.50;;;;;;958031;149;27952;-84
2024/01/13 00:29:50;;;;;;;14.50;10.60;;;3.70;92.60;;;;;;957690;148;27327;-81
2024/01/13 00:32:16;;;;;;;15.00;11.47;;;3.70;92.60;;;;;;957666;148;27699;-82
2024/01/13 00:34:43;;;;;;;14.53;10.57;;;3.70;92.60;;;;;;957989;149;27293;-82
2024/01/13 00:37:09;;;;;;;12.80;9.97;;;3.70;92.40;;;;;;957259;148;27349;-84
2024/01/13 00:39:36;;;;;;;14.00;11.07;;;3.70;92.40;;;;;;957495;149;27342;-81
2024/01/13 00:42:03;;;;;;;14.47;11.07;;;3.80;92.40;;;;;;957942;148;27302;-81
2024/01/13 00:44:29;;;;;;;15.97;12.00;;;3.80;92.40;;;;;;957983;149;27440;-82
2024/01/13 00:46:56;;;;;;;18.13;12.87;;;3.70;92.40;;;;;;957931;146;27369;-82
2024/01/13 00:49:22;;;;;;;17.63;12.40;;;3.80;92.40;;;;;;957985;149;27467;-82
2024/01/13 00:51:49;;;;;;;15.07;12.00;;;3.70;92.40;;;;;;957661;149;27342;-87
2024/01/13 00:54:16;;;;;;;15.03;11.37;;;3.70;92.50;;;;;;957257;149;27352;-87
2024/01/13 00:56:42;;;;;;;16.10;12.57;;;3.80;92.60;;;;;;957678;148;27388;-85
2024/01/13 00:59:09;;;;;;;14.70;11.70;;;3.80;92.60;;;;;;957943;148;27363;-83
2024/01/13 01:01:35;;;;;;;16.53;11.37;;;3.80;92.60;;;;;;958029;148;27448;-85
2024/01/13 01:04:02;;;;;;;14.77;11.47;;;3.80;92.80;;;;;;957506;148;27325;-86
2024/01/13 01:06:28;;;;;;;15.30;11.37;;;3.80;92.50;;;;;;957483;146;27299;-86
2024/01/13 01:08:55;;;;;;;16.13;11.77;;;3.80;92.50;;;;;;957286;147;27319;-85
2024/01/13 01:11:23;;;;;;;14.93;11.33;;;3.90;92.50;;;;;;957868;148;27374;-86
2024/01/13 01:13:48;;;;;;;17.17;12.20;;;3.80;92.50;;;;;;957611;147;27401;-87
2024/01/13 01:16:15;;;;;;;14.97;12.27;;;3.80;92.40;;;;;;957513;149;27360;-86
2024/01/13 01:18:41;;;;;;;15.47;11.90;;;3.90;92.30;;;;;;958058;148;27349;-86
2024/01/13 01:21:08;;;;;;;16.93;12.50;;;3.90;92.30;;;;;;957622;148;27392;-84
2024/01/13 01:23:35;;;;;;;16.87;12.60;;;3.80;92.30;;;;;;957686;149;27336;-87
2024/01/13 01:26:01;;;;;;;15.40;11.83;;;3.80;92.30;;;;;;957744;149;27359;-86
2024/01/13 01:28:28;;;;;;;16.10;11.53;;;3.80;92.30;;;;;;957344;149;27319;-84
2024/01/13 01:30:54;;;;;;;15.17;11.90;;;3.80;92.30;;;;;;957702;149;27275;-85
2024/01/13 01:33:21;;;;;;;17.90;11.80;;;3.80;92.30;;;;;;957931;146;27439;-86
2024/01/13 01:35:48;;;;;;;14.33;11.90;;;3.80;92.30;;;;;;957961;148;27235;-86
2024/01/13 01:38:14;;;;;;;16.17;11.93;;;3.80;92.30;;;;;;957685;148;27299;-85
2024/01/13 01:40:41;;;;;;;17.23;11.83;;;3.80;92.30;;;;;;957915;148;27367;-86
2024/01/13 01:43:07;;;;;;;14.60;11.87;;;3.80;92.30;;;;;;957997;146;27338;-87
2024/01/13 01:45:34;;;;;;;14.30;11.43;;;3.80;92.30;;;;;;958040;146;27411;-86
2024/01/13 01:48:00;;;;;;;15.80;11.40;;;3.80;92.40;;;;;;957918;146;27396;-85
2024/01/13 01:50:27;;;;;;;14.17;11.23;;;3.80;92.30;;;;;;960343;148;27417;-85
2024/01/13 01:52:54;;;;;;;15.30;11.00;;;3.80;92.30;;;;;;964082;148;27427;-83
2024/01/13 01:55:20;;;;;;;16.60;11.97;;;3.80;92.30;;;;;;964488;147;27752;-86
2024/01/13 01:57:47;;;;;;;15.93;11.67;;;3.80;92.30;;;;;;964189;148;27258;-86
2024/01/13 02:00:13;;;;;;;14.10;12.30;;;3.80;92.30;;;;;;963704;148;27317;-81
2024/01/13 02:02:40;;;;;;;16.83;12.10;;;3.80;92.30;;;;;;964462;148;27297;-82
2024/01/13 02:05:07;;;;;;;17.00;12.30;;;3.80;92.30;;;;;;964177;148;27353;-80
2024/01/13 02:07:34;;;;;;;15.37;11.70;;;3.70;92.30;;;;;;964393;145;27296;-80
2024/01/13 02:10:00;;;;;;;16.17;11.70;;;3.70;92.30;;;;;;963625;146;27383;-81
2024/01/13 02:12:26;;;;;;;17.17;11.60;;;3.70;92.30;;;;;;965106;145;27640;-81
2024/01/13 02:14:54;;;;;;;15.87;11.83;;;3.70;92.30;;;;;;964068;148;27337;-80
2024/01/13 02:17:20;;;;;;;18.90;13.13;;;3.70;92.30;;;;;;963871;148;27345;-80
2024/01/13 02:19:46;;;;;;;17.33;12.20;;;3.70;92.40;;;;;;963870;148;27270;-80
2024/01/13 02:22:13;;;;;;;16.47;12.50;;;3.70;92.40;;;;;;963980;148;27439;-81
2024/01/13 02:24:39;;;;;;;17.80;11.43;;;3.70;92.40;;;;;;964181;148;27342;-83
2024/01/13 02:27:06;;;;;;;16.20;11.97;;;3.70;92.50;;;;;;964227;148;27441;-80
2024/01/13 02:29:32;;;;;;;17.50;11.03;;;3.70;92.50;;;;;;964286;147;27418;-81
2024/01/13 02:31:59;;;;;;;16.27;12.40;;;3.70;92.50;;;;;;963141;145;27363;-80
2024/01/13 02:34:26;;;;;;;16.37;12.20;;;3.60;92.50;;;;;;964262;148;27286;-82
2024/01/13 02:36:52;;;;;;;15.40;11.73;;;3.60;92.40;;;;;;964602;147;27750;-81
2024/01/13 02:39:19;;;;;;;16.20;11.70;;;3.60;92.30;;;;;;963931;145;27403;-81
2024/01/13 02:41:45;;;;;;;16.80;12.13;;;3.60;92.30;;;;;;964410;148;27407;-81
2024/01/13 02:44:12;;;;;;;16.13;11.53;;;3.60;92.30;;;;;;963905;148;27266;-81
2024/01/13 02:46:39;;;;;;;14.33;10.67;;;3.50;92.30;;;;;;964256;148;27345;-81
2024/01/13 02:49:05;;;;;;;13.77;10.00;;;3.50;92.40;;;;;;963960;148;27822;-80
2024/01/13 02:51:32;;;;;;;16.03;12.33;;;3.50;92.60;;;;;;963693;146;27290;-80
2024/01/13 02:53:58;;;;;;;16.83;12.03;;;3.50;92.70;;;;;;964417;148;27327;-81
2024/01/13 02:56:25;;;;;;;17.90;11.83;;;3.50;93.00;;;;;;964198;147;27338;-83
2024/01/13 02:58:52;;;;;;;16.37;11.30;;;3.50;93.10;;;;;;964582;146;27394;-80
2024/01/13 03:01:18;;;;;;;15.80;11.67;;;3.50;93.10;;;;;;964274;146;27239;-80
2024/01/13 03:03:45;;;;;;;16.00;11.77;;;3.50;93.10;;;;;;963990;148;27399;-80
2024/01/13 03:06:11;;;;;;;16.50;12.20;;;3.50;93.20;;;;;;964176;145;27305;-81
2024/01/13 03:08:38;;;;;;;18.33;12.77;;;3.60;93.20;;;;;;964523;146;27397;-80
2024/01/13 03:11:04;;;;;;;15.63;11.73;;;3.60;93.30;;;;;;963887;146;27283;-87
2024/01/13 03:13:31;;;;;;;16.70;12.23;;;3.60;93.30;;;;;;964118;145;27371;-87
2024/01/13 03:15:58;;;;;;;18.97;12.07;;;3.60;93.30;;;;;;964457;148;27720;-86
2024/01/13 03:18:26;;;;;;;16.37;12.03;;;3.70;93.30;;;;;;964203;148;27414;-83
2024/01/13 03:20:51;;;;;;;14.77;11.83;;;3.60;93.20;;;;;;964169;148;27317;-87
2024/01/13 03:23:17;;;;;;;15.80;12.23;;;3.60;93.10;;;;;;964591;148;27358;-87
2024/01/13 03:25:44;;;;;;;17.10;12.07;;;3.60;93.00;;;;;;964504;148;27270;-87
2024/01/13 03:28:11;;;;;;;16.67;12.20;;;3.60;93.00;;;;;;964188;148;27367;-83
2024/01/13 03:30:37;;;;;;;17.77;12.07;;;3.70;93.40;;;;;;964596;146;27381;-87
2024/01/13 03:33:04;;;;;;;16.67;12.47;;;3.70;93.10;;;;;;964297;148;27388;-87
2024/01/13 03:35:31;;;;;;;16.63;12.43;;;3.70;93.10;;;;;;964018;148;27277;-87
2024/01/13 03:37:57;;;;;;;16.37;12.40;;;3.70;93.00;;;;;;964352;148;27286;-83
2024/01/13 03:40:23;;;;;;;16.50;11.57;;;3.70;93.00;;;;;;964506;148;27457;-83
2024/01/13 03:42:50;;;;;;;16.23;12.53;;;3.70;93.00;;;;;;964406;148;27458;-86
2024/01/13 03:45:17;;;;;;;18.50;13.20;;;3.70;93.10;;;;;;964092;148;27263;-87
2024/01/13 03:47:43;;;;;;;16.70;12.87;;;3.70;93.10;;;;;;964186;148;27673;-85
2024/01/13 03:50:10;;;;;;;19.00;13.17;;;3.70;93.10;;;;;;964274;145;27310;-84
2024/01/13 03:52:36;;;;;;;16.97;11.97;;;3.70;93.10;;;;;;964523;148;27423;-87
2024/01/13 03:55:03;;;;;;;16.90;12.37;;;3.70;93.20;;;;;;964270;147;27278;-87
2024/01/13 03:57:30;;;;;;;17.40;13.17;;;3.70;93.20;;;;;;964202;145;27373;-86
2024/01/13 03:59:56;;;;;;;20.37;14.07;;;3.70;93.20;;;;;;964253;145;27290;-84
2024/01/13 04:02:24;;;;;;;17.67;12.13;;;3.70;93.10;;;;;;964640;146;27352;-86
2024/01/13 04:04:50;;;;;;;18.70;13.03;;;3.70;93.00;;;;;;964248;146;27317;-85
2024/01/13 04:07:16;;;;;;;17.63;12.83;;;3.70;93.10;;;;;;964450;145;27317;-85
2024/01/13 04:09:43;;;;;;;19.93;13.13;;;3.70;93.10;;;;;;963973;146;27302;-85
2024/01/13 04:12:09;;;;;;;18.73;13.93;;;3.70;93.10;;;;;;964104;145;27422;-84
2024/01/13 04:14:36;;;;;;;14.87;11.70;;;3.70;93.10;;;;;;964293;146;27441;-85
2024/01/13 04:17:02;;;;;;;18.27;13.03;;;3.70;93.20;;;;;;963799;148;27359;-84
2024/01/13 04:19:29;;;;;;;18.43;13.70;;;3.70;93.20;;;;;;964129;148;27255;-85
2024/01/13 04:21:55;;;;;;;17.33;13.30;;;3.70;93.30;;;;;;963857;148;27310;-85
2024/01/13 04:24:22;;;;;;;18.17;13.07;;;3.70;93.20;;;;;;964560;148;27353;-86
2024/01/13 04:26:49;;;;;;;20.93;13.97;;;3.70;93.20;;;;;;964115;148;27839;-85
2024/01/13 04:29:15;;;;;;;18.97;13.87;;;3.70;93.10;;;;;;964591;147;27670;-85
2024/01/13 04:31:42;;;;;;;20.23;14.13;;;3.70;93.10;;;;;;964330;148;27643;-85
2024/01/13 04:34:08;;;;;;;21.50;14.93;;;3.70;93.10;;;;;;964071;148;27395;-84
2024/01/13 04:36:35;;;;;;;18.53;13.70;;;3.70;93.10;;;;;;963946;148;27350;-85
2024/01/13 04:39:02;;;;;;;17.70;13.63;;;3.70;93.20;;;;;;963973;146;27305;-86
2024/01/13 04:41:28;;;;;;;17.73;13.70;;;3.70;93.30;;;;;;964429;148;27294;-86
2024/01/13 04:43:55;;;;;;;17.07;12.83;;;3.60;93.40;;;;;;964452;148;27271;-85
2024/01/13 04:46:21;;;;;;;17.23;12.97;;;3.70;93.50;;;;;;963746;148;27480;-86
2024/01/13 04:48:48;;;;;;;19.03;13.83;;;3.60;93.50;;;;;;964119;148;27309;-86
2024/01/13 04:51:16;;;;;;;19.70;14.90;;;3.70;93.50;;;;;;964089;148;27305;-86
2024/01/13 04:53:41;;;;;;;19.27;13.07;;;3.70;93.40;;;;;;957644;146;27662;-84
2024/01/13 04:56:08;;;;;;;25.67;16.60;;;3.70;93.40;;;;;;957629;148;28025;-84
2024/01/13 04:58:34;;;;;;;21.03;14.83;;;3.70;93.40;;;;;;957789;146;27327;-85
2024/01/13 05:01:01;;;;;;;21.80;13.90;;;3.70;93.40;;;;;;957630;149;27243;-85
2024/01/13 05:03:27;;;;;;;23.03;14.40;;;3.70;93.40;;;;;;958211;146;27295;-86
2024/01/13 05:05:54;;;;;;;20.43;14.80;;;3.70;93.50;;;;;;958082;146;27372;-84
2024/01/13 05:08:21;;;;;;;21.17;13.37;;;3.70;93.50;;;;;;957559;146;27381;-87
2024/01/13 05:10:47;;;;;;;24.97;15.37;;;3.70;93.60;;;;;;957690;149;27411;-80
2024/01/13 05:13:14;;;;;;;19.93;14.20;;;3.70;93.60;;;;;;957627;146;27387;-81
2024/01/13 05:15:41;;;;;;;20.10;14.07;;;3.70;93.60;;;;;;957986;149;27397;-81
2024/01/13 05:18:07;;;;;;;19.23;14.03;;;3.70;93.60;;;;;;958024;146;27354;-80
2024/01/13 05:20:34;;;;;;;21.80;15.20;;;3.70;93.60;;;;;;957955;148;27764;-80
2024/01/13 05:23:00;;;;;;;22.17;14.90;;;3.70;93.60;;;;;;958142;146;27947;-80
2024/01/13 05:25:27;;;;;;;22.33;14.07;;;3.70;93.60;;;;;;958058;146;27315;-81
2024/01/13 05:27:53;;;;;;;22.70;14.20;;;3.70;93.60;;;;;;957104;149;27318;-83
2024/01/13 05:30:20;;;;;;;20.80;15.17;;;3.70;93.60;;;;;;957688;148;27431;-80
2024/01/13 05:32:47;;;;;;;21.73;14.93;;;3.80;93.60;;;;;;957993;148;27290;-86
2024/01/13 05:35:14;;;;;;;23.17;15.60;;;3.80;93.60;;;;;;957752;146;27407;-86
2024/01/13 05:37:40;;;;;;;21.37;14.20;;;3.80;93.60;;;;;;957719;148;27259;-84
2024/01/13 05:40:06;;;;;;;21.93;14.40;;;3.80;93.60;;;;;;957870;146;27339;-85
2024/01/13 05:42:33;;;;;;;24.27;15.83;;;3.80;93.70;;;;;;957589;149;27913;-86
2024/01/13 05:45:00;;;;;;;23.23;16.30;;;3.80;93.70;;;;;;957490;148;27275;-85
2024/01/13 05:47:26;;;;;;;21.87;15.83;;;3.80;93.70;;;;;;957789;148;27287;-86
2024/01/13 05:49:53;;;;;;;24.00;16.03;;;3.90;93.70;;;;;;958030;148;27335;-83
2024/01/13 05:52:20;;;;;;;21.53;16.00;;;3.80;93.60;;;;;;958098;148;27450;-86
2024/01/13 05:54:46;;;;;;;23.80;15.50;;;3.90;93.60;;;;;;957906;148;27291;-86
2024/01/13 05:57:13;;;;;;;23.23;15.77;;;3.90;93.60;;;;;;957639;148;27330;-86
2024/01/13 05:59:39;;;;;;;24.47;17.40;;;3.80;93.60;;;;;;957637;146;27364;-84
2024/01/13 06:02:06;;;;;;;23.73;16.77;;;3.80;93.60;;;;;;957190;148;27342;-86
2024/01/13 06:04:32;;;;;;;26.13;16.33;;;3.90;93.60;;;;;;957283;146;27376;-86
2024/01/13 06:06:59;;;;;;;26.43;16.77;;;3.90;93.50;;;;;;957950;148;27402;-86
2024/01/13 06:09:25;;;;;;;28.40;16.93;;;3.80;93.50;;;;;;957672;147;27335;-85
2024/01/13 06:11:52;;;;;;;24.50;16.80;;;3.80;93.40;;;;;;958201;148;27403;-86
2024/01/13 06:14:19;;;;;;;25.33;17.23;;;3.90;93.40;;;;;;957887;149;27347;-86
2024/01/13 06:16:45;;;;;;;24.77;16.40;;;3.80;93.50;;;;;;958038;146;27394;-86
2024/01/13 06:19:12;;;;;;;21.80;14.63;;;3.80;93.60;;;;;;957875;148;27321;-86
2024/01/13 06:21:45;;;;;;;23.87;16.13;;;3.80;93.60;;;;;;957753;148;27455;-83
2024/01/13 06:24:10;;;;;;;26.30;16.50;;;3.90;93.70;;;;;;956847;147;27279;-84
2024/01/13 06:26:40;;;;;;;24.07;14.93;;;3.80;93.80;;;;;;957443;147;27346;-86
2024/01/13 06:29:06;;;;;;;22.63;14.97;;;3.90;93.90;;;;;;957430;149;27538;-86
2024/01/13 06:31:33;;;;;;;24.50;16.03;;;3.90;94.00;;;;;;957674;147;27343;-85
2024/01/13 06:33:59;;;;;;;22.13;15.13;;;3.90;93.90;;;;;;958495;146;27387;-86
2024/01/13 06:36:26;;;;;;;24.57;15.63;;;3.90;93.90;;;;;;958467;147;27290;-85
2024/01/13 06:38:53;;;;;;;25.13;16.13;;;4.00;93.90;;;;;;957704;146;27279;-83
2024/01/13 06:41:19;;;;;;;23.13;15.00;;;4.00;93.90;;;;;;957107;147;27351;-81
2024/01/13 06:43:46;;;;;;;23.97;16.17;;;4.00;93.80;;;;;;956512;147;27406;-82
2024/01/13 06:46:12;;;;;;;24.87;16.53;;;4.00;93.70;;;;;;957461;147;27398;-82
2024/01/13 06:48:39;;;;;;;20.57;14.53;;;4.00;93.60;;;;;;957833;147;27307;-83
2024/01/13 06:51:06;;;;;;;19.80;13.70;;;4.00;93.50;;;;;;958479;147;27411;-84
2024/01/13 06:53:32;;;;;;;26.20;15.83;;;4.00;93.40;;;;;;959712;146;27388;-82
2024/01/13 06:55:59;;;;;;;21.63;15.03;;;4.00;93.30;;;;;;964487;146;27877;-82
2024/01/13 06:58:25;;;;;;;20.80;14.30;;;4.00;93.30;;;;;;964097;148;27387;-82
2024/01/13 07:00:52;;;;;;;19.13;13.13;;;4.00;93.30;;;;;;964020;145;27357;-81
2024/01/13 07:03:18;;;;;;;18.20;12.77;;;4.00;93.30;;;;;;963582;148;27341;-82
2024/01/13 07:05:45;;;;;;;20.60;13.90;;;4.00;93.20;;;;;;964032;145;27287;-82
2024/01/13 07:08:12;;;;;;;17.13;13.50;;;4.00;93.20;;;;;;964248;146;27401;-82
2024/01/13 07:10:38;;;;;;;17.17;11.93;;;4.00;93.30;;;;;;964208;148;27278;-82
2024/01/13 07:13:05;;;;;;;18.63;12.77;;;4.00;93.20;;;;;;964318;146;27445;-84
2024/01/13 07:15:31;;;;;;;16.90;12.60;;;4.00;93.30;;;;;;964493;148;27330;-83
2024/01/13 07:17:58;;;;;;;18.67;12.77;;;4.00;93.30;;;;;;964236;145;27322;-82
2024/01/13 07:20:25;;;;;;;17.37;12.30;;;4.00;93.40;;;;;;963565;148;27282;-83
2024/01/13 07:22:51;;;;;;;17.07;11.47;;;4.00;93.30;;;;;;964288;148;27723;-83
2024/01/13 07:25:18;;;;;;;17.43;12.53;;;4.00;93.30;;;;;;963524;148;27442;-82
2024/01/13 07:27:44;;;;;;;15.83;11.80;;;4.10;93.40;;;;;;963520;148;27298;-82
2024/01/13 07:30:11;;;;;;;17.27;11.27;;;4.10;93.60;;;;;;964353;147;27246;-81
2024/01/13 07:32:38;;;;;;;15.63;11.63;;;4.10;93.50;;;;;;964396;145;27314;-82
2024/01/13 07:35:04;;;;;;;14.83;11.50;;;4.10;93.50;;;;;;964060;148;27330;-82
2024/01/13 07:37:31;;;;;;;15.00;11.53;;;4.10;93.60;;;;;;964196;148;27417;-81
2024/01/13 07:39:57;;;;;;;17.03;11.53;;;4.10;93.60;;;;;;964028;146;27312;-82
2024/01/13 07:42:24;;;;;;;18.23;12.47;;;4.20;93.60;;;;;;963812;148;27286;-81
2024/01/13 07:44:51;;;;;;;17.43;12.10;;;4.20;93.50;;;;;;964270;145;27350;-84
2024/01/13 07:47:17;;;;;;;17.27;12.40;;;4.20;93.50;;;;;;964420;145;27345;-81
2024/01/13 07:49:44;;;;;;;17.87;12.13;;;4.20;93.40;;;;;;964123;148;27302;-82
2024/01/13 07:52:10;;;;;;;16.03;12.60;;;4.30;93.40;;;;;;964024;147;27396;-85
2024/01/13 07:54:37;;;;;;;16.40;12.20;;;4.30;93.30;;;;;;960744;148;27427;-85
2024/01/13 07:57:03;;;;;;;16.77;12.07;;;4.30;93.20;;;;;;956713;149;27453;-85
2024/01/13 07:59:30;;;;;;;18.77;13.43;;;4.30;93.10;;;;;;956490;148;28519;-86
2024/01/13 08:01:57;;;;;;;19.53;13.23;;;4.30;93.00;;;;;;956462;148;27279;-87
2024/01/13 08:04:23;;;;;;;18.20;13.00;;;4.30;93.00;;;;;;956541;148;27291;-84
2024/01/13 08:06:50;;;;;;;18.57;12.70;;;4.40;93.10;;;;;;956629;148;27427;-86
2024/01/13 08:09:17;;;;;;;14.60;11.03;;;4.40;93.00;;;;;;956336;147;27401;-86
2024/01/13 08:11:43;;;;;;;16.40;12.60;;;4.40;93.00;;;;;;956118;149;27404;-87
2024/01/13 08:14:10;;;;;;;15.43;11.63;;;4.40;92.90;;;;;;956650;148;27350;-84
2024/01/13 08:16:36;;;;;;;19.13;13.27;;;4.40;92.90;;;;;;956888;149;27346;-86
2024/01/13 08:19:03;;;;;;;18.63;12.83;;;4.40;92.80;;;;;;955837;148;27346;-85
2024/01/13 08:21:29;;;;;;;18.70;12.37;;;4.40;92.80;;;;;;956067;148;27308;-86
2024/01/13 08:23:56;;;;;;;16.57;13.23;;;4.50;92.70;;;;;;956648;149;27357;-86
2024/01/13 08:26:22;;;;;;;15.43;12.50;;;4.50;92.70;;;;;;956804;148;27385;-83
2024/01/13 08:28:49;;;;;;;19.67;13.20;;;4.50;92.60;;;;;;956518;148;27354;-86
2024/01/13 08:31:16;;;;;;;17.93;12.97;;;4.50;92.60;;;;;;956963;149;27835;-86
2024/01/13 08:33:42;;;;;;;16.80;13.03;;;4.50;92.60;;;;;;956464;149;27299;-86
2024/01/13 08:36:09;;;;;;;16.60;11.87;;;4.50;92.50;;;;;;956884;148;27387;-86
2024/01/13 08:38:35;;;;;;;15.63;11.57;;;4.50;92.50;;;;;;956821;148;27358;-86
2024/01/13 08:41:02;;;;;;;15.40;11.93;;;4.50;92.50;;;;;;956522;147;27337;-84
2024/01/13 08:43:29;;;;;;;16.50;12.37;;;4.50;92.60;;;;;;955979;147;27315;-83
2024/01/13 08:45:56;;;;;;;16.20;12.37;;;4.50;92.60;;;;;;956754;149;27379;-84
2024/01/13 08:48:22;;;;;;;17.77;12.57;;;4.60;92.60;;;;;;956483;148;27366;-84
2024/01/13 08:50:48;;;;;;;16.07;12.00;;;4.60;92.60;;;;;;956563;147;27352;-81
2024/01/13 08:53:15;;;;;;;17.13;12.90;;;4.60;92.50;;;;;;956145;147;27725;-82
2024/01/13 08:55:42;;;;;;;14.97;10.83;;;4.60;92.50;;;;;;957343;147;27377;-81
2024/01/13 08:58:08;;;;;;;16.27;11.90;;;4.60;92.30;;;;;;957465;147;27302;-83
2024/01/13 09:00:35;;;;;;;16.50;12.00;;;4.60;92.20;;;;;;957495;147;27431;-81
2024/01/13 09:03:02;;;;;;;16.57;11.97;;;4.60;92.20;;;;;;957303;148;27295;-82
2024/01/13 09:05:28;;;;;;;14.30;10.77;;;4.60;92.20;;;;;;957735;147;27360;-82
2024/01/13 09:07:55;;;;;;;14.97;11.77;;;4.60;92.20;;;;;;958177;147;27359;-83
2024/01/13 09:10:21;;;;;;;15.20;11.80;;;4.70;92.30;;;;;;957306;147;27330;-81
2024/01/13 09:12:48;;;;;;;14.90;11.60;;;4.70;92.30;;;;;;957184;147;27974;-82
2024/01/13 09:15:14;;;;;;;16.23;10.50;;;4.70;92.20;;;;;;957257;146;27732;-82
2024/01/13 09:17:41;;;;;;;13.67;11.57;;;4.60;92.20;;;;;;957999;146;27392;-83
2024/01/13 09:20:10;;;;;;;15.07;11.67;;;4.70;92.20;;;;;;957897;148;27512;-82
2024/01/13 09:22:34;;;;;;;18.27;12.60;;;4.70;92.20;;;;;;956045;147;27314;-83
2024/01/13 09:25:01;;;;;;;16.10;11.10;;;4.70;92.10;;;;;;956339;147;27813;-82
2024/01/13 09:27:27;;;;;;;14.47;11.40;;;4.70;92.10;;;;;;957015;147;27299;-81
2024/01/13 09:29:54;;;;;;;14.90;11.17;;;4.70;92.10;;;;;;957510;148;27458;-84
2024/01/13 09:32:20;;;;;;;15.13;11.63;;;4.70;92.10;;;;;;957131;146;27331;-81
2024/01/13 09:34:47;;;;;;;18.03;12.40;;;4.70;92.10;;;;;;956876;147;27376;-81
2024/01/13 09:37:15;;;;;;;17.03;12.00;;;4.70;92.00;;;;;;956988;147;27384;-81
2024/01/13 09:39:40;;;;;;;14.47;10.67;;;4.70;92.00;;;;;;956541;147;27280;-82
2024/01/13 09:42:07;;;;;;;14.67;11.17;;;4.70;92.00;;;;;;956889;147;27428;-81
2024/01/13 09:44:33;;;;;;;16.20;11.77;;;4.80;92.10;;;;;;957608;147;27986;-81
2024/01/13 09:47:00;;;;;;;14.03;11.33;;;4.80;92.00;;;;;;956865;148;27303;-81
2024/01/13 09:49:30;;;;;;;18.40;11.63;;;4.80;91.90;;;;;;955545;146;27331;-83
2024/01/13 09:51:56;;;;;;;14.17;11.00;;;4.80;91.80;;;;;;956977;146;27415;-81
2024/01/13 09:54:25;;;;;;;16.20;11.60;;;4.80;91.60;;;;;;956827;147;27757;-81
2024/01/13 09:56:51;;;;;;;14.17;11.03;;;4.80;91.50;;;;;;962675;146;27353;-81
2024/01/13 09:59:21;;;;;;;15.07;11.47;;;4.80;91.50;;;;;;963555;146;27355;-80
2024/01/13 10:01:45;;;;;;;14.93;10.47;;;4.70;91.40;;;;;;963453;146;27337;-82
2024/01/13 10:04:12;;;;;;;13.10;10.67;;;4.80;91.50;;;;;;962741;145;27391;-79
2024/01/13 10:06:38;;;;;;;14.10;10.70;;;4.70;91.50;;;;;;962828;148;27274;-81
2024/01/13 10:09:04;;;;;;;11.70;8.87;;;4.70;91.70;;;;;;963740;146;27341;-84
2024/01/13 10:11:31;;;;;;;12.07;9.87;;;4.70;91.80;;;;;;963972;146;27421;-85
2024/01/13 10:13:57;;;;;;;12.30;9.50;;;4.80;91.80;;;;;;963879;146;27282;-87
2024/01/13 10:16:24;;;;;;;15.47;11.40;;;4.80;91.80;;;;;;962784;148;27330;-84
2024/01/13 10:18:51;;;;;;;13.43;10.40;;;4.80;91.80;;;;;;962887;148;27460;-83
2024/01/13 10:21:17;;;;;;;15.30;11.13;;;4.80;91.70;;;;;;964308;147;27385;-87
2024/01/13 10:23:44;;;;;;;16.80;12.50;;;4.90;91.70;;;;;;963904;146;27431;-86
2024/01/13 10:26:10;;;;;;;15.03;11.30;;;4.90;91.80;;;;;;965040;146;27367;-88
2024/01/13 10:28:37;;;;;;;13.50;11.00;;;4.90;91.80;;;;;;964231;148;27298;-85
2024/01/13 10:31:04;;;;;;;13.73;10.40;;;4.90;91.50;;;;;;963965;148;27351;-83
2024/01/13 10:33:31;;;;;;;13.63;11.17;;;4.90;91.60;;;;;;963792;148;28018;-85
2024/01/13 10:35:57;;;;;;;12.50;10.33;;;4.90;91.50;;;;;;963997;146;27249;-84
2024/01/13 10:38:23;;;;;;;12.17;9.60;;;5.00;91.40;;;;;;963490;145;27296;-83
2024/01/13 10:40:50;;;;;;;13.10;10.00;;;5.00;91.30;;;;;;963520;147;27370;-83
2024/01/13 10:43:17;;;;;;;14.50;10.50;;;5.00;91.30;;;;;;962728;147;27422;-85
2024/01/13 10:45:43;;;;;;;13.73;11.17;;;5.00;91.20;;;;;;963347;146;27378;-83
2024/01/13 10:48:10;;;;;;;10.73;9.50;;;5.00;91.30;;;;;;961891;147;27353;-83
2024/01/13 10:50:38;;;;;;;12.37;9.90;;;5.00;91.30;;;;;;962578;148;27266;-82
2024/01/13 10:53:12;;;;;;;12.53;9.43;;;5.00;91.20;;;;;;963312;147;27333;-82
2024/01/13 10:55:38;;;;;;;12.63;9.10;;;5.10;91.10;;;;;;961333;145;27483;-83
2024/01/13 10:58:05;;;;;;;11.93;9.27;;;5.10;90.90;;;;;;963533;148;27239;-83
2024/01/13 11:00:32;;;;;;;11.37;8.67;;;5.10;90.80;;;;;;962966;146;27331;-82
2024/01/13 11:02:58;;;;;;;10.47;8.73;;;5.00;90.80;;;;;;962878;148;27324;-80
2024/01/13 11:05:25;;;;;;;11.90;8.80;;;5.10;90.80;;;;;;963105;146;27483;-79
2024/01/13 11:07:51;;;;;;;12.07;8.93;;;5.10;90.90;;;;;;962841;148;27374;-80
2024/01/13 11:10:21;;;;;;;10.00;8.60;;;5.10;90.70;;;;;;962987;148;27318;-80
2024/01/13 11:12:47;;;;;;;10.50;8.33;;;5.10;90.70;;;;;;962692;148;27459;-83
2024/01/13 11:15:14;;;;;;;11.83;8.30;;;5.10;90.70;;;;;;962245;148;27402;-83
2024/01/13 11:17:40;;;;;;;11.77;8.47;;;5.10;90.90;;;;;;960962;148;27316;-83
2024/01/13 11:20:07;;;;;;;10.27;8.23;;;5.10;91.00;;;;;;963537;145;28270;-83
2024/01/13 11:22:34;;;;;;;10.43;8.47;;;5.20;91.10;;;;;;961971;148;27349;-82
2024/01/13 11:25:00;;;;;;;10.67;8.87;;;5.20;91.40;;;;;;963736;148;27441;-83
2024/01/13 11:27:27;;;;;;;11.97;9.23;;;5.20;91.00;;;;;;962976;147;27376;-82
2024/01/13 11:29:55;;;;;;;10.80;8.63;;;5.30;90.90;;;;;;963225;147;27329;-83
2024/01/13 11:32:20;;;;;;;10.57;8.53;;;5.30;90.80;;;;;;962240;146;27313;-83
2024/01/13 11:34:47;;;;;;;9.90;8.43;;;5.40;90.60;;;;;;963338;146;27358;-83
2024/01/13 11:37:13;;;;;;;13.13;9.47;;;5.40;90.50;;;;;;962919;148;27265;-83
2024/01/13 11:39:40;;;;;;;11.70;8.87;;;5.40;90.30;;;;;;962710;148;27310;-81
2024/01/13 11:42:06;;;;;;;12.17;9.00;;;5.40;90.20;;;;;;963152;145;27378;-81
2024/01/13 11:44:36;;;;;;;14.27;8.83;;;5.40;90.20;;;;;;963164;147;27929;-81
2024/01/13 11:47:05;;;;;;;12.83;9.60;;;5.40;90.00;;;;;;962969;148;27302;-82
2024/01/13 11:49:30;;;;;;;10.07;8.27;;;5.50;89.70;;;;;;963219;147;27368;-81
2024/01/13 11:51:59;;;;;;;11.73;9.50;;;5.40;89.30;;;;;;954592;148;27437;-80
2024/01/13 11:54:25;;;;;;;13.60;9.60;;;5.40;89.10;;;;;;963558;145;27342;-81
2024/01/13 11:56:54;;;;;;;13.40;9.37;;;5.40;88.90;;;;;;961483;148;27459;-80
2024/01/13 11:59:21;;;;;;;10.70;9.23;;;5.30;88.90;;;;;;955795;148;27832;-81
2024/01/13 12:01:47;;;;;;;14.10;10.17;;;5.30;89.10;;;;;;956975;146;27239;-82
2024/01/13 12:04:14;;;;;;;13.97;10.33;;;5.30;89.20;;;;;;956358;148;27337;-82
2024/01/13 12:06:42;;;;;;;13.13;10.67;;;5.30;89.20;;;;;;955923;146;27835;-82
2024/01/13 12:09:08;;;;;;;11.83;9.57;;;5.30;89.30;;;;;;956761;146;27326;-81
2024/01/13 12:11:35;;;;;;;12.33;9.63;;;5.30;89.30;;;;;;956984;147;27711;-85
2024/01/13 12:14:04;;;;;;;14.20;10.17;;;5.30;89.30;;;;;;956619;149;27347;-87
2024/01/13 12:16:31;;;;;;;11.83;9.37;;;5.30;89.30;;;;;;956459;147;27456;-83
2024/01/13 12:18:57;;;;;;;12.07;9.40;;;5.30;89.20;;;;;;956528;146;27341;-86
2024/01/13 12:21:24;;;;;;;12.23;9.43;;;5.30;89.20;;;;;;957156;147;27303;-85
2024/01/13 12:23:51;;;;;;;14.87;9.97;;;5.30;89.20;;;;;;956363;147;27404;-86
2024/01/13 12:26:17;;;;;;;11.90;9.07;;;5.30;89.20;;;;;;955979;149;27287;-84
2024/01/13 12:28:44;;;;;;;12.93;10.33;;;5.30;89.20;;;;;;956983;149;27334;-84
2024/01/13 12:31:10;;;;;;;12.50;9.53;;;5.30;89.10;;;;;;956868;148;28288;-85
2024/01/13 12:33:37;;;;;;;13.20;9.53;;;5.30;88.90;;;;;;956561;146;27416;-85